createdAt,value
2023-03-29T00:01:36.832Z,101235.81
2023-03-29T00:04:39.560Z,101230.84
2023-03-29T00:07:42.526Z,101239.44
2023-03-29T00:10:49.492Z,101241.13
2023-03-29T00:13:52.111Z,101226.69
2023-03-29T00:16:54.778Z,101256.28
2023-03-29T00:19:57.159Z,101250.66
2023-03-29T00:22:59.906Z,101246.91
2023-03-29T00:26:02.274Z,101250.47
2023-03-29T00:29:05.000Z,101251.97
2023-03-29T00:32:07.410Z,101255.97
2023-03-29T00:35:11.036Z,101236.13
2023-03-29T00:38:13.427Z,101252.28
2023-03-29T00:41:16.256Z,101259.44
2023-03-29T00:44:57.919Z,101234.53
2023-03-29T00:48:07.728Z,101256.56
2023-03-29T00:51:14.356Z,101237.94
2023-03-29T00:54:19.589Z,101253.63
2023-03-29T00:57:25.867Z,101252.72
2023-03-29T01:00:38.074Z,101258.78
2023-03-29T01:03:46.522Z,101241.50
2023-03-29T01:07:14.203Z,101227.63
2023-03-29T01:10:27.858Z,101238.50
2023-03-29T01:14:05.533Z,101245.09
2023-03-29T01:17:08.491Z,101234.53
2023-03-29T01:20:20.596Z,101242.28
2023-03-29T01:24:06.724Z,101237.16
2023-03-29T01:27:40.626Z,101239.84
2023-03-29T01:30:51.949Z,101230.37
2023-03-29T01:34:02.593Z,101232.63
2023-03-29T01:37:49.797Z,101227.16
2023-03-29T01:40:52.582Z,101222.50
2023-03-29T01:44:05.777Z,101208.06
2023-03-29T01:47:29.933Z,101221.34
2023-03-29T01:50:32.274Z,101221.91
2023-03-29T01:53:34.807Z,101222.31
2023-03-29T01:56:43.458Z,101216.37
2023-03-29T01:59:47.471Z,101222.50
2023-03-29T02:02:53.536Z,101226.41
2023-03-29T02:05:58.215Z,101207.56
2023-03-29T02:09:04.894Z,101211.59
2023-03-29T02:12:09.462Z,101234.09
2023-03-29T02:15:21.588Z,101237.50
2023-03-29T02:18:24.744Z,101229.81
2023-03-29T02:21:37.361Z,101242.03
2023-03-29T02:24:42.403Z,101236.78
2023-03-29T02:27:46.074Z,101240.34
2023-03-29T02:30:48.373Z,101217.59
2023-03-29T02:34:22.412Z,101247.91
2023-03-29T02:37:30.238Z,101246.59
2023-03-29T02:40:37.600Z,101214.88
2023-03-29T02:43:42.540Z,101232.28
2023-03-29T02:46:48.950Z,101241.34
2023-03-29T02:49:51.459Z,101217.44
2023-03-29T02:52:59.560Z,101243.25
2023-03-29T02:56:02.348Z,101246.59
2023-03-29T02:59:06.080Z,101247.50
2023-03-29T03:02:08.512Z,101248.31
2023-03-29T03:05:11.348Z,101251.31
2023-03-29T03:08:14.056Z,101245.00
2023-03-29T03:11:16.958Z,101254.66
2023-03-29T03:14:22.857Z,101256.34
2023-03-29T03:17:25.929Z,101258.44
2023-03-29T03:20:28.321Z,101260.13
2023-03-29T03:23:32.109Z,101250.87
2023-03-29T03:26:35.953Z,101258.47
2023-03-29T03:29:41.758Z,101258.88
2023-03-29T03:32:45.087Z,101259.97
2023-03-29T03:35:49.869Z,101254.72
2023-03-29T03:38:53.262Z,101263.53
2023-03-29T03:41:56.319Z,101266.91
2023-03-29T03:44:58.979Z,101246.66
2023-03-29T03:48:02.854Z,101266.84
2023-03-29T03:51:06.671Z,101269.19
2023-03-29T03:54:10.308Z,101261.63
2023-03-29T03:57:15.777Z,101263.16
2023-03-29T04:00:21.664Z,101252.19
2023-03-29T04:03:24.995Z,101258.69
2023-03-29T04:06:30.659Z,101246.31
2023-03-29T04:09:37.649Z,101271.56
2023-03-29T04:12:40.925Z,101274.06
2023-03-29T04:15:46.070Z,101269.59
2023-03-29T04:18:49.921Z,101272.53
2023-03-29T04:21:52.980Z,101262.22
2023-03-29T04:24:55.679Z,101250.31
2023-03-29T04:27:59.744Z,101253.28
2023-03-29T04:31:02.937Z,101270.19
2023-03-29T04:34:06.192Z,101265.09
2023-03-29T04:37:10.588Z,101263.34
2023-03-29T04:40:14.919Z,101270.91
2023-03-29T04:43:18.770Z,101250.06
2023-03-29T04:46:26.503Z,101265.78
2023-03-29T04:49:30.520Z,101269.50
2023-03-29T04:52:35.067Z,101242.34
2023-03-29T04:55:37.868Z,101246.53
2023-03-29T04:58:40.666Z,101251.34
2023-03-29T05:01:43.120Z,101268.38
2023-03-29T05:04:46.987Z,101254.50
2023-03-29T05:07:49.910Z,101259.38
2023-03-29T05:10:53.656Z,101256.97
2023-03-29T05:13:58.500Z,101264.03
2023-03-29T05:17:01.556Z,101266.00
2023-03-29T05:20:09.673Z,101263.59
2023-03-29T05:23:12.595Z,101262.97
2023-03-29T05:26:17.285Z,101277.59
2023-03-29T05:29:21.810Z,101275.62
2023-03-29T05:32:24.781Z,101277.37
2023-03-29T05:35:29.233Z,101272.97
2023-03-29T05:38:34.893Z,101256.69
2023-03-29T05:41:38.059Z,101280.28
2023-03-29T05:44:44.011Z,101254.47
2023-03-29T05:47:48.040Z,101277.69
2023-03-29T05:50:52.412Z,101283.28
2023-03-29T05:53:55.080Z,101288.16
2023-03-29T05:56:57.474Z,101287.87
2023-03-29T06:00:00.191Z,101286.59
2023-03-29T06:03:13.746Z,101296.97
2023-03-29T06:06:22.977Z,101276.78
2023-03-29T06:09:25.806Z,101296.50
2023-03-29T06:12:29.205Z,101297.34
2023-03-29T06:15:33.009Z,101300.47
2023-03-29T06:18:36.674Z,101278.72
2023-03-29T06:21:39.089Z,101301.63
2023-03-29T06:24:42.163Z,101301.53
2023-03-29T06:27:48.955Z,101300.25
2023-03-29T06:30:56.457Z,101303.00
2023-03-29T06:34:01.666Z,101309.56
2023-03-29T06:37:06.056Z,101314.13
2023-03-29T06:40:10.091Z,101313.84
2023-03-29T06:43:14.603Z,101288.41
2023-03-29T06:46:19.022Z,101292.16
2023-03-29T06:49:28.845Z,101293.66
2023-03-29T06:52:31.674Z,101321.00
2023-03-29T06:55:34.537Z,101304.66
2023-03-29T06:58:40.976Z,101311.78
2023-03-29T07:01:45.091Z,101294.31
2023-03-29T07:04:48.811Z,101304.44
2023-03-29T07:08:00.275Z,101323.25
2023-03-29T07:11:04.013Z,101320.53
2023-03-29T07:14:08.387Z,101329.25
2023-03-29T07:17:10.920Z,101334.38
2023-03-29T07:20:15.552Z,101321.31
2023-03-29T07:23:19.493Z,101317.28
2023-03-29T07:26:28.976Z,101337.75
2023-03-29T07:29:33.084Z,101338.97
2023-03-29T07:32:36.377Z,101339.09
2023-03-29T07:35:43.430Z,101322.34
2023-03-29T07:38:46.181Z,101349.22
2023-03-29T07:41:49.170Z,101348.38
2023-03-29T07:44:54.286Z,101358.31
2023-03-29T07:47:58.719Z,101351.81
2023-03-29T07:51:02.937Z,101350.72
2023-03-29T07:54:06.480Z,101354.72
2023-03-29T07:57:12.231Z,101352.06
2023-03-29T08:00:16.314Z,101365.87
2023-03-29T08:03:20.197Z,101351.87
2023-03-29T08:06:22.654Z,101358.87
2023-03-29T08:09:27.254Z,101351.19
2023-03-29T08:12:30.703Z,101355.84
2023-03-29T08:15:35.438Z,101343.62
2023-03-29T08:18:37.953Z,101324.44
2023-03-29T08:21:41.130Z,101335.03
2023-03-29T08:24:43.761Z,101347.34
2023-03-29T08:27:46.417Z,101341.50
2023-03-29T08:30:49.789Z,101350.22
2023-03-29T08:33:53.315Z,101349.03
2023-03-29T08:36:59.184Z,101341.03
2023-03-29T08:40:03.284Z,101339.97
2023-03-29T08:43:28.660Z,101329.53
2023-03-29T08:46:51.974Z,101339.16
2023-03-29T08:49:56.717Z,101319.41
2023-03-29T08:53:30.288Z,101328.31
2023-03-29T08:56:36.109Z,101331.87
2023-03-29T08:59:42.538Z,101334.66
2023-03-29T09:02:46.714Z,101320.34
2023-03-29T09:05:57.813Z,101319.72
2023-03-29T09:09:01.722Z,101318.84
2023-03-29T09:12:16.637Z,101313.81
2023-03-29T09:15:28.780Z,101303.12
2023-03-29T09:18:48.031Z,101281.16
2023-03-29T09:22:02.972Z,101289.69
2023-03-29T09:25:25.701Z,101297.09
2023-03-29T09:28:37.603Z,101297.63
2023-03-29T09:31:44.409Z,101292.06
2023-03-29T09:35:22.400Z,101273.47
2023-03-29T09:38:25.869Z,101282.47
2023-03-29T09:41:33.926Z,101285.78
2023-03-29T09:44:42.139Z,101285.88
2023-03-29T09:48:11.181Z,101264.47
2023-03-29T09:51:16.519Z,101252.47
2023-03-29T09:54:19.320Z,101245.19
2023-03-29T09:57:23.529Z,101245.03
2023-03-29T10:00:25.964Z,101238.38
2023-03-29T10:03:31.958Z,101258.84
2023-03-29T10:06:36.731Z,101247.63
2023-03-29T10:09:42.432Z,101235.03
2023-03-29T10:12:50.962Z,101250.41
2023-03-29T10:16:09.265Z,101221.97
2023-03-29T10:19:34.527Z,101226.00
2023-03-29T10:22:38.171Z,101231.50
2023-03-29T10:25:42.564Z,101209.87
2023-03-29T10:28:46.076Z,101219.31
2023-03-29T10:31:49.101Z,101199.94
2023-03-29T10:34:52.212Z,101198.88
2023-03-29T10:37:58.479Z,101190.19
2023-03-29T10:41:09.991Z,101199.41
2023-03-29T10:44:33.068Z,101199.87
2023-03-29T10:47:36.739Z,101183.88
2023-03-29T10:50:39.173Z,101207.44
2023-03-29T10:53:42.366Z,101184.00
2023-03-29T10:57:01.319Z,101185.47
2023-03-29T11:00:16.815Z,101187.50
2023-03-29T11:03:57.075Z,101180.56
2023-03-29T11:07:14.698Z,101193.34
2023-03-29T11:10:41.492Z,101192.19
2023-03-29T11:13:50.094Z,101191.91
2023-03-29T11:17:25.407Z,101184.38
2023-03-29T11:20:54.529Z,101175.97
2023-03-29T11:24:33.990Z,101188.69
2023-03-29T11:28:02.970Z,101182.63
2023-03-29T11:31:13.374Z,101184.19
2023-03-29T11:34:27.957Z,101187.03
2023-03-29T11:37:54.636Z,101171.00
2023-03-29T11:41:18.723Z,101164.81
2023-03-29T11:44:27.372Z,101167.56
2023-03-29T11:47:38.049Z,101166.16
2023-03-29T11:50:46.706Z,101141.75
2023-03-29T11:53:57.061Z,101159.59
2023-03-29T11:57:10.446Z,101143.53
2023-03-29T12:00:21.348Z,101135.56
2023-03-29T12:03:40.052Z,101149.03
2023-03-29T12:07:34.693Z,101147.72
2023-03-29T12:10:43.050Z,101144.59
2023-03-29T12:13:55.339Z,101140.03
2023-03-29T12:17:05.672Z,101134.75
2023-03-29T12:20:29.368Z,101121.37
2023-03-29T12:23:33.553Z,101116.25
2023-03-29T12:27:24.490Z,101110.31
2023-03-29T12:30:38.443Z,101112.72
2023-03-29T12:33:40.886Z,101101.50
2023-03-29T12:37:11.885Z,101080.63
2023-03-29T12:40:19.017Z,101097.06
2023-03-29T12:43:32.268Z,101075.75
2023-03-29T12:46:36.078Z,101087.81
2023-03-29T12:49:39.509Z,101073.84
2023-03-29T12:52:42.938Z,101068.81
2023-03-29T12:56:00.768Z,101094.94
2023-03-29T12:59:24.571Z,101082.47
2023-03-29T13:02:35.379Z,101078.88
2023-03-29T13:05:38.198Z,101089.19
2023-03-29T13:08:44.032Z,101086.97
2023-03-29T13:11:53.630Z,101083.03
2023-03-29T13:15:02.837Z,101078.19
2023-03-29T13:18:23.991Z,101071.78
2023-03-29T13:21:48.305Z,101073.47
2023-03-29T13:25:08.568Z,101048.66
2023-03-29T13:28:27.084Z,101057.87
2023-03-29T13:31:52.327Z,101037.19
2023-03-29T13:35:12.407Z,101053.09
2023-03-29T13:38:23.688Z,101048.13
2023-03-29T13:41:39.597Z,101024.69
2023-03-29T13:44:46.175Z,101043.81
2023-03-29T13:48:02.584Z,101046.28
2023-03-29T13:51:19.124Z,101030.41
2023-03-29T13:54:30.850Z,101040.72
2023-03-29T13:57:41.350Z,101030.13
2023-03-29T14:00:54.032Z,101034.44
2023-03-29T14:03:57.614Z,101026.56
2023-03-29T14:07:01.835Z,101026.84
2023-03-29T14:10:05.950Z,101007.00
2023-03-29T14:13:14.099Z,101026.34
2023-03-29T14:16:16.934Z,101028.75
2023-03-29T14:19:32.998Z,101025.59
2023-03-29T14:22:35.886Z,101005.12
2023-03-29T14:25:39.653Z,101020.41
2023-03-29T14:28:50.702Z,101014.66
2023-03-29T14:31:53.100Z,101009.66
2023-03-29T14:34:55.858Z,101017.41
2023-03-29T14:37:59.486Z,101014.19
2023-03-29T14:41:03.105Z,100998.16
2023-03-29T14:44:07.635Z,101013.19
2023-03-29T14:47:17.111Z,101020.00
2023-03-29T14:50:26.291Z,101001.91
2023-03-29T14:53:32.331Z,100994.44
2023-03-29T14:56:35.035Z,100998.28
2023-03-29T14:59:41.473Z,100982.53
2023-03-29T15:02:54.865Z,100993.16
2023-03-29T15:06:03.996Z,100992.66
2023-03-29T15:09:07.107Z,101001.59
2023-03-29T15:12:15.851Z,101002.69
2023-03-29T15:15:18.630Z,100997.69
2023-03-29T15:18:27.711Z,100998.72
2023-03-29T15:21:35.773Z,100983.13
2023-03-29T15:24:47.185Z,100978.28
2023-03-29T15:27:54.552Z,100970.25
2023-03-29T15:34:13.689Z,100968.84
2023-03-29T15:37:16.358Z,100989.91
2023-03-29T15:40:23.596Z,100988.50
2023-03-29T15:43:27.045Z,100963.84
2023-03-29T15:46:29.468Z,100977.16
2023-03-29T15:49:32.065Z,100971.06
2023-03-29T15:52:34.472Z,100956.84
2023-03-29T15:55:41.787Z,100953.53
2023-03-29T15:58:44.734Z,100955.47
2023-03-29T16:01:48.506Z,100947.75
2023-03-29T16:04:51.689Z,100960.50
2023-03-29T16:07:54.014Z,100959.69
2023-03-29T16:10:56.714Z,100938.28
2023-03-29T16:13:59.533Z,100952.75
2023-03-29T16:17:02.988Z,100930.56
2023-03-29T16:20:07.253Z,100946.88
2023-03-29T16:23:09.981Z,100949.41
2023-03-29T16:26:13.948Z,100941.06
2023-03-29T16:29:17.464Z,100947.19
2023-03-29T16:32:20.065Z,100944.44
2023-03-29T16:35:29.847Z,100938.28
2023-03-29T16:38:35.488Z,100922.47
2023-03-29T16:41:38.592Z,100932.72
2023-03-29T16:44:41.018Z,100935.25
2023-03-29T16:47:44.370Z,100938.91
2023-03-29T16:50:50.110Z,100934.19
2023-03-29T16:53:52.935Z,100930.03
2023-03-29T16:56:55.441Z,100926.69
2023-03-29T16:59:58.202Z,100945.56
2023-03-29T17:03:03.554Z,100936.13
2023-03-29T17:06:07.618Z,100941.13
2023-03-29T17:09:10.093Z,100917.28
2023-03-29T17:12:12.888Z,100946.44
2023-03-29T17:15:15.386Z,100924.78
2023-03-29T17:18:23.011Z,100931.44
2023-03-29T17:21:25.839Z,100913.69
2023-03-29T17:24:28.438Z,100911.19
2023-03-29T17:27:30.902Z,100915.09
2023-03-29T17:30:34.902Z,100923.41
2023-03-29T17:33:37.505Z,100938.37
2023-03-29T17:36:41.231Z,100935.63
2023-03-29T17:39:43.717Z,100947.81
2023-03-29T17:42:48.191Z,100949.47
2023-03-29T17:45:54.563Z,100956.41
2023-03-29T17:48:59.104Z,100950.56
2023-03-29T17:52:01.447Z,100934.47
2023-03-29T17:55:04.354Z,100933.09
2023-03-29T17:58:07.227Z,100934.22
2023-03-29T18:01:11.421Z,100952.25
2023-03-29T18:04:14.060Z,100940.00
2023-03-29T18:07:17.365Z,100944.97
2023-03-29T18:10:20.089Z,100970.00
2023-03-29T18:13:25.511Z,100967.22
2023-03-29T18:16:28.840Z,100969.41
2023-03-29T18:19:31.332Z,100967.75
2023-03-29T18:22:34.168Z,100981.59
2023-03-29T18:25:36.479Z,100987.69
2023-03-29T18:28:39.383Z,100972.69
2023-03-29T18:31:42.753Z,100970.44
2023-03-29T18:34:45.616Z,100988.50
2023-03-29T18:37:47.977Z,100966.84
2023-03-29T18:40:50.742Z,100968.25
2023-03-29T18:43:54.734Z,100999.06
2023-03-29T18:46:57.514Z,100981.00
2023-03-29T18:49:59.938Z,100998.22
2023-03-29T18:53:02.597Z,100981.00
2023-03-29T18:56:06.512Z,100993.22
2023-03-29T18:59:09.696Z,100974.34
2023-03-29T19:02:12.684Z,100995.47
2023-03-29T19:05:15.641Z,100972.37
2023-03-29T19:08:17.984Z,100991.00
2023-03-29T19:11:21.666Z,100973.22
2023-03-29T19:14:25.286Z,100992.09
2023-03-29T19:17:28.182Z,100990.97
2023-03-29T19:20:30.601Z,101006.22
2023-03-29T19:23:33.196Z,100978.19
2023-03-29T19:26:35.621Z,100982.63
2023-03-29T19:29:38.335Z,100997.84
2023-03-29T19:32:40.752Z,101001.50
2023-03-29T19:35:43.970Z,101002.25
2023-03-29T19:38:46.614Z,100994.72
2023-03-29T19:41:49.297Z,101003.13
2023-03-29T19:44:51.598Z,100999.75
2023-03-29T19:47:55.916Z,100983.13
2023-03-29T19:51:01.497Z,101000.91
2023-03-29T19:54:05.146Z,100993.69
2023-03-29T19:57:09.210Z,100998.72
2023-03-29T20:00:14.160Z,101001.50
2023-03-29T20:03:17.859Z,100990.94
2023-03-29T20:06:21.565Z,100989.53
2023-03-29T20:09:24.292Z,100992.56
2023-03-29T20:12:26.682Z,100974.53
2023-03-29T20:15:29.309Z,100967.62
2023-03-29T20:18:32.180Z,100992.06
2023-03-29T20:21:37.261Z,100979.31
2023-03-29T20:24:39.690Z,100984.03
2023-03-29T20:27:42.861Z,100961.78
2023-03-29T20:30:45.272Z,100962.37
2023-03-29T20:33:47.991Z,100979.59
2023-03-29T20:36:50.379Z,100975.44
2023-03-29T20:39:53.264Z,100965.19
2023-03-29T20:42:56.029Z,100962.94
2023-03-29T20:46:00.253Z,100960.47
2023-03-29T20:49:05.034Z,100962.09
2023-03-29T20:52:12.842Z,100950.41
2023-03-29T20:55:16.800Z,100972.09
2023-03-29T20:58:19.411Z,100968.78
2023-03-29T21:01:21.971Z,100968.78
2023-03-29T21:04:24.895Z,100966.03
2023-03-29T21:07:28.620Z,100966.03
2023-03-29T21:10:31.622Z,100953.50
2023-03-29T21:13:36.885Z,100961.00
2023-03-29T21:16:42.429Z,100960.47
2023-03-29T21:19:44.762Z,100931.59
2023-03-29T21:22:47.363Z,100942.09
2023-03-29T21:25:49.731Z,100956.84
2023-03-29T21:28:52.437Z,100961.56
2023-03-29T21:31:55.032Z,100945.97
2023-03-29T21:34:58.250Z,100944.31
2023-03-29T21:38:01.921Z,100936.53
2023-03-29T21:41:04.848Z,100952.34
2023-03-29T21:44:07.342Z,100950.41
2023-03-29T21:47:10.045Z,100951.53
2023-03-29T21:50:12.472Z,100943.50
2023-03-29T21:53:16.112Z,100943.78
2023-03-29T21:56:18.409Z,100930.16
2023-03-29T21:59:21.170Z,100942.09
2023-03-29T22:02:23.672Z,100935.44
2023-03-29T22:05:26.486Z,100933.09
2023-03-29T22:08:29.742Z,100956.72
2023-03-29T22:11:32.514Z,100920.91
2023-03-29T22:14:35.270Z,100948.41
2023-03-29T22:17:38.139Z,100957.25
2023-03-29T22:20:40.520Z,100950.91
2023-03-29T22:23:45.487Z,100947.88
2023-03-29T22:26:48.176Z,100933.62
2023-03-29T22:29:51.265Z,100955.78
2023-03-29T22:32:53.634Z,100923.56
2023-03-29T22:35:56.671Z,100956.00
2023-03-29T22:38:59.089Z,100946.06
2023-03-29T22:42:01.711Z,100948.56
2023-03-29T22:45:05.005Z,100947.41
2023-03-29T22:48:07.610Z,100966.00
2023-03-29T22:51:10.037Z,100962.91
2023-03-29T22:54:12.660Z,100969.78
2023-03-29T22:57:15.030Z,100948.63
2023-03-29T23:00:18.149Z,100969.19
2023-03-29T23:03:20.636Z,100963.94
2023-03-29T23:06:23.234Z,100960.34
2023-03-29T23:09:25.679Z,100946.19
2023-03-29T23:12:28.253Z,100962.63
2023-03-29T23:15:32.294Z,100966.78
2023-03-29T23:18:37.421Z,100964.50
2023-03-29T23:21:40.040Z,100966.75
2023-03-29T23:24:43.560Z,100965.09
2023-03-29T23:27:45.850Z,100958.44
2023-03-29T23:31:03.990Z,100961.69
2023-03-29T23:34:06.619Z,100943.06
2023-03-29T23:37:09.233Z,100948.78
2023-03-29T23:40:15.498Z,100952.50
2023-03-29T23:43:18.183Z,100956.09
2023-03-29T23:46:21.485Z,100937.19
2023-03-29T23:49:24.237Z,100934.41
2023-03-29T23:52:27.249Z,100957.72
2023-03-29T23:55:29.905Z,100959.69
2023-03-29T23:58:35.998Z,100952.53
